Denver, Colorado
Traffic Map
Current Weather Conditions
Denver, Colorado
Broken Clouds
Broken Clouds

Feels Like: -1°
Wind Chill: -1° Ceiling: 20000
Heat Index: Visibility: 10mi
Dew Point: -19° Wind: 9mph
Humidity: 19% Direction: 270° (W)
Pressure: 29.8in Gusts: 0mph
Raw Report DataKBKF 252058Z 27008KT 10SM FEW090 BKN200 02/M19 A2980 RMK AO2A SLP113 T00241190 57022
Traffic Incident Summary
Active as of:
Severity:
Category:
InformationThere was an issue retrieving the traffic information for this location. Please try a different location or try again shortly.
Advertisements
Track Severe Weather on mobile